Time;durP1;ratioP1;P1;durP2;ratioP2;P2;SDS_P1;SDS_P2;PMS_P1;PMS_P2;Temp;Humidity;BMP_temperature;BMP_pressure;BME280_temperature;BME280_humidity;BME280_pressure;Samples;Min_cycle;Max_cycle;Signal;HPM_P1;HPM_P2
2023/09/22 00:01:20;;;;;;;813.33;732.05;;;;;;;;;;6337381;22;20019;-62
2023/09/22 00:03:52;;;;;;;811.50;730.17;;;;;;;;;;6337668;22;20019;-60
2023/09/22 00:06:22;;;;;;;816.28;732.72;;;;;;;;;;6337527;22;20078;-60
2023/09/22 00:08:48;;;;;;;807.15;726.67;;;;;;;;;;6310184;22;20403;-61
2023/09/22 00:11:16;;;;;;;809.60;727.17;;;;;;;;;;6337090;22;20349;-60
2023/09/22 00:13:43;;;;;;;811.70;728.05;;;;;;;;;;6336864;22;20395;-61
2023/09/22 00:16:10;;;;;;;825.83;741.03;;;;;;;;;;6337048;22;20026;-61
2023/09/22 00:18:36;;;;;;;838.70;750.53;;;;;;;;;;6309738;22;20398;-61
2023/09/22 00:24:56;;;;;;;785.35;703.67;;;;;;;;;;6336258;22;20560;-59
2023/09/22 00:27:23;;;;;;;802.80;720.25;;;;;;;;;;6339202;22;20087;-60
2023/09/22 00:29:50;;;;;;;801.40;719.92;;;;;;;;;;6337958;22;20025;-60
2023/09/22 00:32:16;;;;;;;804.17;723.25;;;;;;;;;;6337100;22;20415;-59
2023/09/22 00:34:43;;;;;;;797.55;716.42;;;;;;;;;;6339157;22;20042;-61
2023/09/22 00:37:10;;;;;;;797.38;716.50;;;;;;;;;;6337485;22;20042;-60
2023/09/22 00:39:37;;;;;;;790.22;708.67;;;;;;;;;;6338841;22;20124;-59
2023/09/22 00:42:08;;;;;;;806.65;721.97;;;;;;;;;;6337512;22;20499;-60
2023/09/22 00:44:37;;;;;;;799.10;717.90;;;;;;;;;;6337643;22;20022;-59
2023/09/22 00:47:09;;;;;;;792.72;712.40;;;;;;;;;;6337226;22;20496;-61
2023/09/22 00:49:36;;;;;;;799.63;718.38;;;;;;;;;;6339212;22;20034;-59
2023/09/22 00:52:03;;;;;;;785.15;704.30;;;;;;;;;;6338596;22;20409;-59
2023/09/22 00:54:30;;;;;;;812.72;729.88;;;;;;;;;;6337235;22;20475;-59
2023/09/22 00:56:57;;;;;;;795.85;714.92;;;;;;;;;;6338981;22;20018;-63
2023/09/22 00:59:24;;;;;;;790.85;709.95;;;;;;;;;;6338739;22;20015;-59
2023/09/22 01:01:51;;;;;;;792.83;712.00;;;;;;;;;;6336924;22;20489;-60
2023/09/22 01:04:19;;;;;;;785.65;704.58;;;;;;;;;;6338814;22;20022;-59
2023/09/22 01:06:47;;;;;;;792.58;711.83;;;;;;;;;;6337250;22;20097;-59
2023/09/22 01:09:14;;;;;;;801.17;716.28;;;;;;;;;;6338950;22;20428;-59
2023/09/22 01:11:41;;;;;;;792.97;711.95;;;;;;;;;;6337855;22;20410;-59
2023/09/22 01:14:08;;;;;;;781.60;699.95;;;;;;;;;;6337155;22;20042;-61
2023/09/22 01:16:36;;;;;;;786.92;706.58;;;;;;;;;;6338868;22;20093;-61
2023/09/22 01:19:10;;;;;;;786.83;706.08;;;;;;;;;;6338916;22;20018;-59
2023/09/22 01:21:36;;;;;;;778.72;696.95;;;;;;;;;;6337248;22;20025;-59
2023/09/22 01:24:04;;;;;;;788.25;704.72;;;;;;;;;;6336708;22;20025;-59
2023/09/22 01:26:36;;;;;;;780.97;701.03;;;;;;;;;;6337273;22;20320;-59
2023/09/22 01:29:04;;;;;;;796.97;717.05;;;;;;;;;;6336841;22;20039;-60
2023/09/22 01:31:30;;;;;;;783.00;702.53;;;;;;;;;;6337115;22;20448;-60
2023/09/22 01:33:57;;;;;;;783.97;702.65;;;;;;;;;;6338299;22;20493;-60
2023/09/22 01:36:25;;;;;;;785.47;704.60;;;;;;;;;;6337073;22;20455;-59
2023/09/22 01:38:51;;;;;;;776.42;695.33;;;;;;;;;;6337506;22;20103;-60
2023/09/22 01:41:18;;;;;;;774.70;694.80;;;;;;;;;;6338465;22;20453;-59
2023/09/22 01:43:45;;;;;;;781.78;702.13;;;;;;;;;;6338878;22;20010;-60
2023/09/22 01:46:12;;;;;;;776.83;696.50;;;;;;;;;;6337098;22;20019;-59
2023/09/22 01:48:39;;;;;;;778.25;697.90;;;;;;;;;;6337049;22;20049;-60
2023/09/22 01:51:06;;;;;;;795.42;710.60;;;;;;;;;;6336773;22;20027;-60
2023/09/22 01:53:35;;;;;;;781.42;701.65;;;;;;;;;;6338363;22;20483;-60
2023/09/22 01:56:01;;;;;;;781.15;700.20;;;;;;;;;;6336792;22;20458;-60
2023/09/22 01:58:28;;;;;;;775.45;694.83;;;;;;;;;;6310565;22;20025;-59
2023/09/22 02:03:38;;;;;;;765.27;683.43;;;;;;;;;;6246814;23;20102;-61
2023/09/22 02:06:05;;;;;;;788.90;704.05;;;;;;;;;;6276114;22;20613;-60
2023/09/22 02:08:32;;;;;;;785.17;701.88;;;;;;;;;;6251547;23;20015;-60
2023/09/22 02:10:58;;;;;;;789.42;707.35;;;;;;;;;;6222449;23;20043;-63
2023/09/22 02:13:25;;;;;;;778.20;695.88;;;;;;;;;;6249874;23;20429;-62
2023/09/22 02:15:52;;;;;;;781.38;698.00;;;;;;;;;;6225710;23;20044;-62
2023/09/22 02:18:20;;;;;;;787.13;703.97;;;;;;;;;;6276645;22;20020;-62
2023/09/22 02:20:47;;;;;;;779.10;697.88;;;;;;;;;;6249397;23;20342;-62
2023/09/22 02:23:15;;;;;;;778.75;695.47;;;;;;;;;;6251394;23;20031;-62
2023/09/22 02:25:42;;;;;;;770.40;686.88;;;;;;;;;;6252567;23;20062;-63
2023/09/22 02:28:08;;;;;;;781.08;697.78;;;;;;;;;;6251820;23;20016;-62
2023/09/22 02:30:37;;;;;;;777.20;695.15;;;;;;;;;;6247683;23;20082;-62
2023/09/22 02:33:04;;;;;;;778.28;694.45;;;;;;;;;;6251048;23;20070;-62
2023/09/22 02:35:31;;;;;;;779.85;697.05;;;;;;;;;;6252802;23;20018;-62
2023/09/22 02:37:57;;;;;;;777.28;694.92;;;;;;;;;;6251823;23;20035;-62
2023/09/22 02:40:24;;;;;;;771.22;689.47;;;;;;;;;;6221203;23;20425;-62
2023/09/22 02:42:51;;;;;;;773.80;692.22;;;;;;;;;;6250042;23;20008;-62
2023/09/22 02:45:17;;;;;;;778.97;695.53;;;;;;;;;;6251001;23;20019;-62
2023/09/22 02:47:49;;;;;;;776.55;694.47;;;;;;;;;;6251826;23;20027;-62
2023/09/22 02:50:18;;;;;;;770.65;689.08;;;;;;;;;;6220853;23;20015;-62
2023/09/22 02:52:45;;;;;;;783.47;702.00;;;;;;;;;;6248166;23;20023;-63
2023/09/22 02:55:13;;;;;;;770.40;688.50;;;;;;;;;;6250996;23;20047;-63
2023/09/22 02:57:42;;;;;;;770.10;687.92;;;;;;;;;;6223740;23;20085;-62
2023/09/22 03:00:18;;;;;;;776.47;691.53;;;;;;;;;;6247311;23;20019;-62
2023/09/22 03:02:46;;;;;;;759.88;678.92;;;;;;;;;;6250031;23;20068;-63
2023/09/22 03:05:16;;;;;;;764.95;684.58;;;;;;;;;;6249046;23;20563;-62
2023/09/22 03:07:48;;;;;;;771.28;689.70;;;;;;;;;;6247858;23;20031;-63
2023/09/22 03:10:15;;;;;;;774.17;691.60;;;;;;;;;;6246876;22;20022;-62
2023/09/22 03:12:42;;;;;;;774.20;691.00;;;;;;;;;;6272453;22;20036;-63
2023/09/22 03:15:09;;;;;;;786.72;700.85;;;;;;;;;;6221409;23;20036;-63
2023/09/22 03:17:37;;;;;;;764.85;682.88;;;;;;;;;;6248776;23;20016;-62
2023/09/22 03:20:07;;;;;;;761.70;680.63;;;;;;;;;;6244413;23;20016;-63
2023/09/22 03:22:34;;;;;;;769.00;686.85;;;;;;;;;;6220457;23;20023;-62
2023/09/22 03:25:01;;;;;;;847.83;681.03;;;;;;;;;;6245742;23;20433;-63
2023/09/22 03:27:36;;;;;;;811.72;677.78;;;;;;;;;;6270054;22;20028;-62
2023/09/22 03:30:06;;;;;;;773.05;684.72;;;;;;;;;;6218633;23;20016;-62
2023/09/22 03:32:35;;;;;;;764.05;681.90;;;;;;;;;;6218797;23;20042;-63
2023/09/22 03:35:07;;;;;;;768.60;686.35;;;;;;;;;;6243469;23;20016;-62
2023/09/22 03:37:34;;;;;;;764.70;682.58;;;;;;;;;;6218334;23;20020;-62
2023/09/22 03:40:14;;;;;;;767.30;685.38;;;;;;;;;;6244846;23;20303;-62
2023/09/22 03:42:43;;;;;;;765.10;682.38;;;;;;;;;;6245249;23;20024;-63
2023/09/22 03:45:11;;;;;;;777.17;689.55;;;;;;;;;;6269019;22;20038;-62
2023/09/22 03:47:39;;;;;;;760.53;678.65;;;;;;;;;;6244998;23;20095;-62
2023/09/22 03:50:06;;;;;;;765.28;682.17;;;;;;;;;;6217937;23;20030;-63
2023/09/22 03:52:33;;;;;;;764.28;681.40;;;;;;;;;;6218357;23;20052;-63
2023/09/22 03:54:59;;;;;;;759.08;677.35;;;;;;;;;;6243276;23;20023;-62
2023/09/22 03:57:27;;;;;;;761.75;678.63;;;;;;;;;;6218536;23;20020;-62
2023/09/22 03:59:54;;;;;;;757.33;674.35;;;;;;;;;;6246653;23;20428;-62
2023/09/22 04:02:21;;;;;;;772.65;690.47;;;;;;;;;;6246685;23;20020;-62
2023/09/22 04:04:47;;;;;;;759.03;677.42;;;;;;;;;;6246857;23;20020;-62
2023/09/22 04:07:14;;;;;;;765.08;682.58;;;;;;;;;;6270703;22;20016;-62
2023/09/22 04:09:42;;;;;;;769.95;686.90;;;;;;;;;;6246732;23;20012;-62
2023/09/22 04:12:09;;;;;;;776.22;680.63;;;;;;;;;;6246173;23;20333;-63
2023/09/22 04:14:36;;;;;;;760.38;675.85;;;;;;;;;;6246950;23;20039;-62
2023/09/22 04:17:04;;;;;;;758.25;677.10;;;;;;;;;;6246081;23;20016;-62
2023/09/22 04:19:33;;;;;;;757.58;676.53;;;;;;;;;;6246435;23;20372;-62
2023/09/22 04:22:00;;;;;;;761.35;679.80;;;;;;;;;;6245998;23;20315;-62
2023/09/22 04:24:32;;;;;;;765.10;678.78;;;;;;;;;;6246642;23;20094;-63
2023/09/22 04:27:07;;;;;;;749.15;667.50;;;;;;;;;;6246479;23;20314;-62
2023/09/22 04:29:36;;;;;;;766.17;682.55;;;;;;;;;;6246356;23;20012;-62
2023/09/22 04:32:04;;;;;;;744.35;662.28;;;;;;;;;;6246264;23;20016;-62
2023/09/22 04:34:32;;;;;;;765.42;680.75;;;;;;;;;;6246217;23;20083;-62
2023/09/22 04:37:05;;;;;;;761.47;679.55;;;;;;;;;;6246404;23;20019;-62
2023/09/22 04:39:32;;;;;;;772.42;687.45;;;;;;;;;;6269372;22;20452;-63
2023/09/22 04:42:00;;;;;;;771.95;689.03;;;;;;;;;;6246356;23;20031;-63
2023/09/22 04:44:27;;;;;;;762.70;680.10;;;;;;;;;;6246230;23;20066;-61
2023/09/22 04:46:53;;;;;;;767.17;685.10;;;;;;;;;;6245980;23;20053;-61
2023/09/22 04:49:20;;;;;;;765.50;684.13;;;;;;;;;;6269832;22;20016;-62
2023/09/22 04:51:47;;;;;;;797.65;702.25;;;;;;;;;;6246126;23;20087;-62
2023/09/22 04:54:15;;;;;;;789.88;697.78;;;;;;;;;;6245844;23;20299;-62
2023/09/22 04:56:43;;;;;;;770.25;689.13;;;;;;;;;;6246147;23;20299;-62
2023/09/22 04:59:09;;;;;;;780.97;698.70;;;;;;;;;;6219655;23;20007;-62
2023/09/22 05:01:37;;;;;;;787.03;704.38;;;;;;;;;;6245746;23;20043;-62
2023/09/22 05:04:04;;;;;;;793.97;709.28;;;;;;;;;;6245725;23;20333;-61
2023/09/22 05:06:31;;;;;;;795.10;712.83;;;;;;;;;;6245662;23;20012;-62
2023/09/22 05:08:57;;;;;;;796.60;713.22;;;;;;;;;;6245555;23;20448;-62
2023/09/22 05:11:25;;;;;;;803.53;720.70;;;;;;;;;;6269687;22;20008;-63
2023/09/22 05:13:53;;;;;;;803.42;721.10;;;;;;;;;;6246010;23;20008;-62
2023/09/22 05:16:21;;;;;;;835.60;747.53;;;;;;;;;;6245198;23;20012;-63
2023/09/22 05:18:48;;;;;;;816.60;732.97;;;;;;;;;;6245410;23;20433;-62
2023/09/22 05:21:15;;;;;;;828.67;741.38;;;;;;;;;;6245228;23;20376;-62
2023/09/22 05:23:41;;;;;;;838.28;750.15;;;;;;;;;;6244142;23;20372;-63
2023/09/22 05:26:08;;;;;;;876.95;787.17;;;;;;;;;;6243897;23;20047;-64
2023/09/22 05:28:36;;;;;;;826.40;742.38;;;;;;;;;;6243816;23;20321;-64
2023/09/22 05:31:06;;;;;;;841.42;757.53;;;;;;;;;;6244867;23;20417;-64
2023/09/22 05:33:36;;;;;;;836.72;750.35;;;;;;;;;;6240879;23;20503;-63
2023/09/22 05:36:05;;;;;;;855.28;766.20;;;;;;;;;;6244454;23;20008;-62
2023/09/22 05:38:32;;;;;;;870.65;779.53;;;;;;;;;;6245076;23;20365;-64
2023/09/22 05:40:59;;;;;;;832.33;749.38;;;;;;;;;;6244534;23;20500;-62
2023/09/22 05:43:26;;;;;;;842.28;756.55;;;;;;;;;;6244732;23;20044;-64
2023/09/22 05:45:54;;;;;;;1147.13;762.88;;;;;;;;;;6245059;23;20019;-62
2023/09/22 05:48:21;;;;;;;849.22;758.63;;;;;;;;;;6245429;23;20016;-63
2023/09/22 05:50:57;;;;;;;857.15;772.58;;;;;;;;;;6245408;23;20079;-62
2023/09/22 05:53:27;;;;;;;863.65;774.03;;;;;;;;;;6245247;23;20020;-63
2023/09/22 05:56:08;;;;;;;862.22;774.70;;;;;;;;;;6244989;23;20441;-63
2023/09/22 05:58:35;;;;;;;880.38;791.63;;;;;;;;;;6245108;23;20020;-64
2023/09/22 06:01:11;;;;;;;888.50;802.58;;;;;;;;;;6245482;23;20100;-63
2023/09/22 06:03:39;;;;;;;886.75;799.08;;;;;;;;;;6243651;23;20039;-64
2023/09/22 06:06:11;;;;;;;893.45;803.75;;;;;;;;;;6245424;23;20094;-64
2023/09/22 06:08:41;;;;;;;897.45;810.45;;;;;;;;;;6245631;23;20019;-64
2023/09/22 06:11:08;;;;;;;902.08;814.85;;;;;;;;;;6245150;23;20070;-64
2023/09/22 06:13:35;;;;;;;899.33;813.75;;;;;;;;;;6245251;23;20050;-64
2023/09/22 06:16:02;;;;;;;911.38;823.47;;;;;;;;;;6245227;23;20018;-64
2023/09/22 06:18:30;;;;;;;937.22;839.97;;;;;;;;;;6245227;23;20453;-64
2023/09/22 06:20:57;;;;;;;980.28;889.97;;;;;;;;;;6245679;23;20047;-64
2023/09/22 06:23:25;;;;;;;1001.28;909.00;;;;;;;;;;6245221;23;20019;-64
2023/09/22 06:25:54;;;;;;;1037.82;943.63;;;;;;;;;;6244798;23;20087;-64
2023/09/22 06:28:20;;;;;;;1066.30;970.13;;;;;;;;;;6245241;23;20020;-64
2023/09/22 06:30:47;;;;;;;1082.30;985.40;;;;;;;;;;6245730;23;20019;-64
2023/09/22 06:33:16;;;;;;;1112.03;999.90;;;;;;;;;;6244623;23;20062;-64
2023/09/22 06:35:44;;;;;;;1112.00;999.90;;;;;;;;;;6245723;23;20456;-64
2023/09/22 06:38:11;;;;;;;1125.53;999.90;;;;;;;;;;6244662;23;20414;-64
2023/09/22 06:40:37;;;;;;;1132.03;999.90;;;;;;;;;;6244863;23;20031;-63
2023/09/22 06:43:05;;;;;;;1140.60;999.90;;;;;;;;;;6245049;23;20008;-63
2023/09/22 06:45:51;;;;;;;1155.55;999.90;;;;;;;;;;6244514;23;20028;-64
2023/09/22 06:48:25;;;;;;;1171.30;999.90;;;;;;;;;;6244611;23;20016;-63
2023/09/22 06:50:53;;;;;;;1163.35;999.90;;;;;;;;;;6245026;23;20066;-63
2023/09/22 06:53:21;;;;;;;1171.65;999.90;;;;;;;;;;6244891;23;20058;-63
2023/09/22 06:55:49;;;;;;;1165.72;999.90;;;;;;;;;;6244701;23;20004;-61
2023/09/22 06:58:16;;;;;;;1166.40;999.90;;;;;;;;;;6244299;23;20066;-62
2023/09/22 07:00:42;;;;;;;1161.95;999.90;;;;;;;;;;6244754;23;20012;-61
2023/09/22 07:03:09;;;;;;;1155.85;999.90;;;;;;;;;;6244752;23;20073;-64
2023/09/22 07:05:36;;;;;;;1141.13;999.90;;;;;;;;;;6245307;23;20016;-61
2023/09/22 07:08:03;;;;;;;1124.68;999.90;;;;;;;;;;6244690;23;20083;-61
2023/09/22 07:10:33;;;;;;;1121.68;999.90;;;;;;;;;;6244988;23;20023;-62
2023/09/22 07:13:00;;;;;;;1112.20;999.90;;;;;;;;;;6244868;23;20015;-62
2023/09/22 07:15:27;;;;;;;1105.88;999.90;;;;;;;;;;6244372;23;20360;-62
2023/09/22 07:17:54;;;;;;;1086.13;989.22;;;;;;;;;;6244724;23;20042;-62
2023/09/22 07:20:21;;;;;;;1092.05;995.17;;;;;;;;;;6244182;23;20031;-62
2023/09/22 07:22:48;;;;;;;1075.28;978.28;;;;;;;;;;6244294;23;20492;-62
2023/09/22 07:25:15;;;;;;;1084.55;978.60;;;;;;;;;;6244213;23;20019;-63
2023/09/22 07:27:45;;;;;;;1061.57;965.60;;;;;;;;;;6244575;23;20012;-62
2023/09/22 07:30:11;;;;;;;1057.80;959.50;;;;;;;;;;6244724;23;20039;-61
2023/09/22 07:32:39;;;;;;;1054.05;948.70;;;;;;;;;;6244692;23;20012;-62
2023/09/22 07:35:07;;;;;;;1045.60;950.58;;;;;;;;;;6244703;23;20059;-63
2023/09/22 07:37:33;;;;;;;1048.60;954.03;;;;;;;;;;6244186;23;20376;-62
2023/09/22 07:40:01;;;;;;;1043.20;947.95;;;;;;;;;;6244432;23;20012;-64
2023/09/22 07:42:31;;;;;;;1035.55;940.67;;;;;;;;;;6244698;23;20369;-64
2023/09/22 07:44:58;;;;;;;1093.75;963.85;;;;;;;;;;6242811;23;20475;-65
2023/09/22 07:47:25;;;;;;;1048.80;954.20;;;;;;;;;;6244318;23;20022;-65
2023/09/22 07:49:56;;;;;;;1038.93;943.92;;;;;;;;;;6244528;23;20026;-65
2023/09/22 07:52:24;;;;;;;1038.53;942.72;;;;;;;;;;6244199;23;20019;-64
2023/09/22 07:54:52;;;;;;;1032.95;938.92;;;;;;;;;;6244280;23;20062;-64
2023/09/22 07:57:19;;;;;;;1044.13;945.67;;;;;;;;;;6244246;23;20329;-65
2023/09/22 07:59:45;;;;;;;1044.22;951.17;;;;;;;;;;6244869;23;20425;-65
2023/09/22 08:02:12;;;;;;;1034.43;941.47;;;;;;;;;;6243973;23;20012;-66
2023/09/22 08:04:39;;;;;;;1034.75;942.78;;;;;;;;;;6217542;23;20021;-67
2023/09/22 08:07:06;;;;;;;1037.80;945.00;;;;;;;;;;6244099;23;20456;-66
2023/09/22 08:09:33;;;;;;;1031.53;939.30;;;;;;;;;;6242729;23;20012;-66
2023/09/22 08:12:01;;;;;;;1036.85;943.40;;;;;;;;;;6217979;23;20116;-66
2023/09/22 08:14:28;;;;;;;1034.20;940.85;;;;;;;;;;6244103;23;20039;-66
2023/09/22 08:17:15;;;;;;;1043.90;950.92;;;;;;;;;;6244064;23;20377;-65
2023/09/22 08:19:42;;;;;;;1043.38;949.10;;;;;;;;;;6243992;22;20047;-66
2023/09/22 08:22:10;;;;;;;1042.03;947.70;;;;;;;;;;6244290;23;20008;-66
2023/09/22 08:24:37;;;;;;;1040.20;945.13;;;;;;;;;;6244319;23;20023;-66
2023/09/22 08:27:04;;;;;;;1052.13;949.58;;;;;;;;;;6244629;23;20009;-66
2023/09/22 08:29:31;;;;;;;1048.50;955.35;;;;;;;;;;6244383;23;20035;-66
2023/09/22 08:31:58;;;;;;;1042.35;949.63;;;;;;;;;;6244252;23;20040;-66
2023/09/22 08:34:25;;;;;;;1046.07;952.63;;;;;;;;;;6217454;23;20035;-66
2023/09/22 08:36:52;;;;;;;1037.45;943.33;;;;;;;;;;6243967;23;20016;-66
2023/09/22 08:39:19;;;;;;;1052.20;954.60;;;;;;;;;;6244136;23;20008;-65
2023/09/22 08:41:47;;;;;;;1038.07;945.05;;;;;;;;;;6244765;23;20499;-66
2023/09/22 08:44:14;;;;;;;1046.93;954.90;;;;;;;;;;6217398;23;20082;-67
2023/09/22 08:46:42;;;;;;;1046.82;950.45;;;;;;;;;;6219102;23;20012;-66
2023/09/22 08:49:08;;;;;;;1050.70;957.38;;;;;;;;;;6245890;23;20019;-66
2023/09/22 08:51:36;;;;;;;1053.10;958.17;;;;;;;;;;6245930;23;20012;-65
2023/09/22 08:54:02;;;;;;;1052.90;959.20;;;;;;;;;;6246505;23;20016;-65
2023/09/22 08:56:30;;;;;;;1052.07;958.40;;;;;;;;;;6218941;23;20043;-64
2023/09/22 08:58:57;;;;;;;1057.85;964.03;;;;;;;;;;6246007;23;20012;-65
2023/09/22 09:01:24;;;;;;;1067.75;972.05;;;;;;;;;;6245491;23;20022;-65
2023/09/22 09:03:51;;;;;;;1056.75;962.33;;;;;;;;;;6246032;23;20012;-65
2023/09/22 09:06:20;;;;;;;1072.75;974.00;;;;;;;;;;6245962;23;20496;-66
2023/09/22 09:09:08;;;;;;;1067.95;973.40;;;;;;;;;;6244741;23;20035;-66
2023/09/22 09:11:35;;;;;;;1061.60;962.75;;;;;;;;;;6246236;23;20024;-66
2023/09/22 09:14:20;;;;;;;1059.10;962.58;;;;;;;;;;6245581;23;20457;-66
2023/09/22 09:16:46;;;;;;;1057.72;964.30;;;;;;;;;;6245939;23;20409;-66
2023/09/22 09:19:14;;;;;;;1062.75;966.92;;;;;;;;;;6245808;23;20500;-66
2023/09/22 09:22:00;;;;;;;1065.30;970.08;;;;;;;;;;6245432;23;20394;-66
2023/09/22 09:24:26;;;;;;;1062.30;965.92;;;;;;;;;;6244295;23;20110;-66
2023/09/22 09:26:53;;;;;;;1077.95;982.63;;;;;;;;;;6246293;23;20012;-66
2023/09/22 09:29:26;;;;;;;1074.60;979.30;;;;;;;;;;6245670;23;20008;-66
2023/09/22 09:31:53;;;;;;;1068.80;973.50;;;;;;;;;;6245517;23;20016;-66
2023/09/22 09:34:23;;;;;;;1071.63;976.03;;;;;;;;;;6245678;23;20076;-65
2023/09/22 09:37:08;;;;;;;1077.50;981.97;;;;;;;;;;6245568;23;20414;-66
2023/09/22 09:39:45;;;;;;;1069.53;974.70;;;;;;;;;;6245868;23;20039;-67
2023/09/22 09:42:19;;;;;;;1078.72;979.50;;;;;;;;;;6245634;23;20488;-68
2023/09/22 09:44:47;;;;;;;1065.88;971.13;;;;;;;;;;6245968;23;20026;-65
2023/09/22 09:47:25;;;;;;;1085.05;972.45;;;;;;;;;;6245977;23;20019;-65
2023/09/22 09:49:59;;;;;;;1088.75;978.60;;;;;;;;;;6245633;23;20008;-66
2023/09/22 09:52:25;;;;;;;1150.88;999.90;;;;;;;;;;6270785;22;20914;-88
2023/09/22 09:55:12;;;;;;;1459.72;999.90;;;;;;;;;;6267766;22;20069;-89
2023/09/22 09:57:42;;;;;;;1230.28;999.90;;;;;;;;;;6238853;22;20026;-90
2023/09/22 10:00:19;;;;;;;1166.30;999.90;;;;;;;;;;6262522;22;20796;-88
2023/09/22 10:02:47;;;;;;;1142.20;999.90;;;;;;;;;;6248951;22;20323;-89
2023/09/22 10:05:18;;;;;;;1176.00;999.90;;;;;;;;;;6290440;22;20015;-88
2023/09/22 10:07:49;;;;;;;1154.63;999.90;;;;;;;;;;6274250;22;20014;-86
2023/09/22 10:10:18;;;;;;;1111.80;998.90;;;;;;;;;;6284349;22;20333;-88
2023/09/22 10:12:45;;;;;;;1152.07;999.90;;;;;;;;;;6254837;22;20022;-90
2023/09/22 10:15:12;;;;;;;1240.15;999.90;;;;;;;;;;6278389;22;20853;-88
2023/09/22 10:17:39;;;;;;;1137.25;999.90;;;;;;;;;;6281286;22;20021;-88
2023/09/22 10:20:10;;;;;;;1134.65;999.90;;;;;;;;;;6262845;22;20019;-89
2023/09/22 10:22:38;;;;;;;1132.35;999.90;;;;;;;;;;6275959;22;20019;-88
2023/09/22 10:25:13;;;;;;;1176.35;999.90;;;;;;;;;;6289088;22;20010;-86
2023/09/22 10:27:50;;;;;;;1105.65;999.90;;;;;;;;;;6308339;22;20019;-86
2023/09/22 10:30:43;;;;;;;1119.60;999.90;;;;;;;;;;6335627;22;20087;-86
2023/09/22 10:33:30;;;;;;;1150.85;999.90;;;;;;;;;;6269928;22;20014;-87
2023/09/22 10:35:58;;;;;;;1109.72;999.90;;;;;;;;;;6259545;22;20149;-87
2023/09/22 10:38:25;;;;;;;1107.20;999.90;;;;;;;;;;6308617;22;20102;-85
2023/09/22 10:41:01;;;;;;;1104.05;999.28;;;;;;;;;;6336473;22;20477;-86
2023/09/22 10:43:28;;;;;;;1189.80;999.90;;;;;;;;;;6312806;22;20030;-86
2023/09/22 10:45:56;;;;;;;1138.28;999.90;;;;;;;;;;6284941;22;20010;-89
2023/09/22 10:48:22;;;;;;;1318.80;999.90;;;;;;;;;;6286242;22;20452;-91
2023/09/22 10:50:50;;;;;;;1745.22;999.90;;;;;;;;;;6240603;22;20018;-89
2023/09/22 10:53:16;;;;;;;1786.72;999.90;;;;;;;;;;6203289;22;20686;-88
2023/09/22 10:55:44;;;;;;;1771.32;999.90;;;;;;;;;;6200329;22;20809;-89
2023/09/22 10:58:16;;;;;;;1962.88;999.90;;;;;;;;;;6186839;22;20021;-88
2023/09/22 11:01:14;;;;;;;1730.63;999.90;;;;;;;;;;6159539;22;20536;-87
2023/09/22 11:03:53;;;;;;;1999.90;999.90;;;;;;;;;;6170951;22;20077;-89
2023/09/22 11:06:30;;;;;;;;;;;;;;;;;;;;;
2023/09/22 11:09:35;;;;;;;1999.90;999.90;;;;;;;;;;6195586;22;20925;-87
2023/09/22 11:12:35;;;;;;;1999.90;999.90;;;;;;;;;;6167502;22;20505;-88
2023/09/22 11:15:31;;;;;;;1999.90;999.90;;;;;;;;;;6160067;22;20274;-86
2023/09/22 11:17:58;;;;;;;1772.50;999.90;;;;;;;;;;6124369;22;20019;-87
2023/09/22 11:20:28;;;;;;;1427.07;999.90;;;;;;;;;;6195625;22;20527;-88
2023/09/22 11:22:59;;;;;;;1681.25;999.90;;;;;;;;;;6214295;22;20702;-88
2023/09/22 11:25:28;;;;;;;1991.47;999.90;;;;;;;;;;6193393;22;20832;-87
2023/09/22 11:27:55;;;;;;;1999.20;999.90;;;;;;;;;;6183930;22;20015;-88
2023/09/22 11:30:26;;;;;;;1935.32;999.90;;;;;;;;;;6171352;22;20017;-89
2023/09/22 11:32:59;;;;;;;1992.22;999.90;;;;;;;;;;6197157;22;20934;-87
2023/09/22 11:35:42;;;;;;;1612.95;999.90;;;;;;;;;;6193503;22;20015;-88
2023/09/22 11:38:24;;;;;;;1666.43;999.90;;;;;;;;;;6184322;22;20024;-90
2023/09/22 11:41:04;;;;;;;1744.40;999.90;;;;;;;;;;6221274;22;20109;-90
2023/09/22 11:43:31;;;;;;;1638.13;999.90;;;;;;;;;;6190329;22;20104;-89
2023/09/22 11:46:25;;;;;;;1358.25;999.90;;;;;;;;;;6223757;22;20069;-88
2023/09/22 11:49:05;;;;;;;1105.43;999.90;;;;;;;;;;6253906;22;20019;-89
2023/09/22 11:51:43;;;;;;;1122.85;999.90;;;;;;;;;;6276048;22;20054;-89
2023/09/22 11:54:11;;;;;;;1113.53;999.90;;;;;;;;;;6246267;22;20526;-87
2023/09/22 11:56:40;;;;;;;1130.78;999.90;;;;;;;;;;6275291;22;20455;-88
2023/09/22 11:59:08;;;;;;;1191.85;999.90;;;;;;;;;;6204225;22;20101;-90
2023/09/22 12:01:35;;;;;;;1254.38;999.90;;;;;;;;;;6197401;22;20019;-90
2023/09/22 12:04:04;;;;;;;1096.20;996.28;;;;;;;;;;6222708;22;20101;-84
2023/09/22 12:06:35;;;;;;;1100.50;997.13;;;;;;;;;;6288765;22;20084;-86
2023/09/22 12:09:03;;;;;;;1129.22;999.90;;;;;;;;;;6249670;22;20011;-85
2023/09/22 12:11:30;;;;;;;1085.97;984.90;;;;;;;;;;6325366;22;20090;-84
2023/09/22 12:13:58;;;;;;;1097.93;996.55;;;;;;;;;;6332261;22;20025;-86
2023/09/22 12:16:25;;;;;;;1101.97;996.67;;;;;;;;;;6316123;22;20019;-86
2023/09/22 12:18:52;;;;;;;1078.97;981.72;;;;;;;;;;6332358;22;20097;-85
2023/09/22 12:21:19;;;;;;;1101.50;997.60;;;;;;;;;;6325293;22;20544;-85
2023/09/22 12:23:46;;;;;;;1079.32;984.65;;;;;;;;;;6334925;22;20057;-86
2023/09/22 12:26:12;;;;;;;1082.90;986.10;;;;;;;;;;6333087;22;20337;-87
2023/09/22 12:28:43;;;;;;;1435.05;999.90;;;;;;;;;;6317911;22;20031;-90
2023/09/22 12:31:10;;;;;;;1602.38;999.90;;;;;;;;;;6238447;22;20015;-88
2023/09/22 12:33:37;;;;;;;1100.55;997.70;;;;;;;;;;6258257;22;20092;-86
2023/09/22 12:36:04;;;;;;;1220.47;999.90;;;;;;;;;;6264209;22;20506;-89
2023/09/22 12:38:31;;;;;;;1147.80;999.90;;;;;;;;;;6315842;22;20370;-86
2023/09/22 12:40:58;;;;;;;1377.28;999.90;;;;;;;;;;6175726;22;20015;-88
2023/09/22 12:43:25;;;;;;;1996.03;999.90;;;;;;;;;;6226242;22;20597;-87
2023/09/22 12:45:54;;;;;;;1390.82;999.90;;;;;;;;;;6235710;22;20018;-90
2023/09/22 12:52:50;;;;;;;;;;;;;;;;;;;;;
2023/09/22 12:59:52;;;;;;;1070.53;975.80;;;;;;;;;;6032920;23;20034;-88
2023/09/22 13:02:26;;;;;;;1377.37;999.90;;;;;;;;;;6014585;23;20023;-90
2023/09/22 13:04:56;;;;;;;1124.55;999.90;;;;;;;;;;6113991;23;20322;-88
2023/09/22 13:07:27;;;;;;;1104.75;998.72;;;;;;;;;;6127022;23;20807;-88
2023/09/22 13:10:01;;;;;;;1447.53;999.90;;;;;;;;;;6132563;23;20060;-89
2023/09/22 13:12:37;;;;;;;1177.40;991.78;;;;;;;;;;6065396;23;20371;-89
2023/09/22 13:15:07;;;;;;;1462.28;999.90;;;;;;;;;;6124670;23;20055;-90
2023/09/22 13:17:36;;;;;;;1108.13;999.45;;;;;;;;;;6065623;23;20017;-90
2023/09/22 13:20:06;;;;;;;1496.25;999.90;;;;;;;;;;6157347;23;20512;-89
2023/09/22 13:22:35;;;;;;;1133.80;999.90;;;;;;;;;;6136995;23;20500;-92
2023/09/22 13:28:41;;;;;;;1568.70;999.90;;;;;;;;;;6235717;22;20034;-91
2023/09/22 13:31:21;;;;;;;1074.32;976.33;;;;;;;;;;6281734;22;20053;-92
2023/09/22 13:34:26;;;;;;;1174.57;999.90;;;;;;;;;;6302526;22;20436;-93
2023/09/22 13:45:50;;;;;;;;;;;;;;;;;;;;;
2023/09/22 13:49:37;;;;;;;;;;;;;;;;;;;;;
2023/09/22 13:52:17;;;;;;;1062.68;970.25;;;;;;;;;;5949813;24;20376;-88
2023/09/22 13:54:44;;;;;;;1081.63;978.67;;;;;;;;;;5979274;23;20406;-88
2023/09/22 13:57:10;;;;;;;1077.38;981.78;;;;;;;;;;5956242;24;20072;-89
2023/09/22 13:59:37;;;;;;;1073.50;979.30;;;;;;;;;;5980183;23;20095;-89
2023/09/22 14:02:05;;;;;;;1080.82;984.28;;;;;;;;;;5955338;24;20016;-89
2023/09/22 14:04:33;;;;;;;1075.97;979.88;;;;;;;;;;5960072;24;20023;-89
2023/09/22 14:07:03;;;;;;;1073.25;979.35;;;;;;;;;;5990325;23;20030;-89
2023/09/22 14:09:34;;;;;;;1108.25;998.30;;;;;;;;;;6011892;23;20527;-90
2023/09/22 14:15:58;;;;;;;1777.65;999.90;;;;;;;;;;5925847;23;20011;-89
2023/09/22 14:18:39;;;;;;;1790.03;999.90;;;;;;;;;;5996900;23;20447;-90
2023/09/22 14:21:23;;;;;;;1985.90;999.90;;;;;;;;;;5977894;23;20013;-91
2023/09/22 14:23:51;;;;;;;1690.07;999.90;;;;;;;;;;6041206;23;20793;-89
2023/09/22 14:26:34;;;;;;;1844.60;999.90;;;;;;;;;;6194229;22;20884;-88
2023/09/22 14:33:32;;;;;;;1999.90;999.90;;;;;;;;;;6038679;23;20095;-85
2023/09/22 14:36:24;;;;;;;1999.90;999.90;;;;;;;;;;5967393;23;20021;-86
2023/09/22 14:38:58;;;;;;;1996.40;999.90;;;;;;;;;;5916824;23;20093;-86
2023/09/22 14:49:32;;;;;;;1999.90;999.90;;;;;;;;;;5928729;23;20159;-89